Time;durP1;ratioP1;P1;durP2;ratioP2;P2;SDS_P1;SDS_P2;PMS_P1;PMS_P2;Temp;Humidity;BMP_temperature;BMP_pressure;BME280_temperature;BME280_humidity;BME280_pressure;Samples;Min_cycle;Max_cycle;Signal;HPM_P1;HPM_P2
2022/05/17 00:00:53;;;;;;;;;;;;;;;22.34;59.81;99143.84;2076379;28;19932;-51
2022/05/17 00:01:54;;;;;;;;;;;;;;;22.34;59.67;99148.44;2073427;28;19925;-49
2022/05/17 00:02:55;;;;;;;;;;;;;;;22.35;59.79;99144.72;2075230;28;19944;-52
2022/05/17 00:03:56;;;;;;;;;;;;;;;22.35;59.69;99140.13;2074746;28;19949;-48
2022/05/17 00:04:57;;;;;;;;;;;;;;;22.35;59.70;99139.31;2077049;28;20507;-50
2022/05/17 00:05:59;;;;;;;;;;;;;;;22.33;59.81;99136.81;2077076;28;19929;-51
2022/05/17 00:07:00;;;;;;;;;;;;;;;22.34;59.71;99133.03;2075699;28;19972;-51
2022/05/17 00:08:02;;;;;;;;;;;;;;;22.32;59.94;99128.94;2074355;28;20819;-48
2022/05/17 00:09:03;;;;;;;;;;;;;;;22.33;59.83;99126.00;2076494;28;19971;-48
2022/05/17 00:10:05;;;;;;;;;;;;;;;22.33;59.73;99133.28;2077148;28;19936;-49
2022/05/17 00:11:06;;;;;;;;;;;;;;;22.32;59.74;99140.56;2075819;28;19978;-49
2022/05/17 00:12:08;;;;;;;;;;;;;;;22.33;59.87;99134.09;2076168;28;20003;-48
2022/05/17 00:13:08;;;;;;;;;;;;;;;22.33;59.88;99141.38;2076002;28;19932;-52
2022/05/17 00:14:10;;;;;;;;;;;;;;;22.33;59.67;99136.81;2073545;28;20119;-51
2022/05/17 00:15:11;;;;;;;;;;;;;;;22.34;59.81;99132.22;2077611;28;19929;-49
2022/05/17 00:16:12;;;;;;;;;;;;;;;22.33;59.75;99135.97;2075838;28;20012;-51
2022/05/17 00:17:13;;;;;;;;;;;;;;;22.33;59.86;99139.50;2075485;28;20008;-49
2022/05/17 00:18:16;;;;;;;;;;;;;;;22.33;59.69;99139.50;2076624;28;19939;-51
2022/05/17 00:19:19;;;;;;;;;;;;;;;22.32;59.78;99135.16;2074789;28;19940;-51
2022/05/17 00:20:21;;;;;;;;;;;;;;;22.33;59.82;99130.56;2073910;28;19939;-52
2022/05/17 00:21:22;;;;;;;;;;;;;;;22.31;59.74;99128.09;2075875;28;19936;-54
2022/05/17 00:22:25;;;;;;;;;;;;;;;22.30;59.90;99129.97;2076392;28;19929;-51
2022/05/17 00:23:26;;;;;;;;;;;;;;;22.31;59.83;99133.47;2077612;28;19972;-47
2022/05/17 00:24:27;;;;;;;;;;;;;;;22.32;59.70;99129.75;2075898;28;19929;-52
2022/05/17 00:25:28;;;;;;;;;;;;;;;22.32;59.68;99127.06;2076154;28;19967;-51
2022/05/17 00:26:29;;;;;;;;;;;;;;;22.32;59.66;99127.06;2076360;28;19972;-52
2022/05/17 00:27:31;;;;;;;;;;;;;;;22.33;59.79;99122.47;2075332;28;19964;-54
2022/05/17 00:28:32;;;;;;;;;;;;;;;22.32;59.78;99124.34;2074117;28;19929;-53
2022/05/17 00:29:33;;;;;;;;;;;;;;;22.32;59.89;99124.34;2073834;28;19935;-52
2022/05/17 00:30:34;;;;;;;;;;;;;;;22.32;59.81;99120.81;2073788;28;20395;-49
2022/05/17 00:31:35;;;;;;;;;;;;;;;22.33;59.85;99119.78;2074483;28;20013;-51
2022/05/17 00:32:36;;;;;;;;;;;;;;;22.33;60.10;99119.78;2075743;28;20419;-50
2022/05/17 00:33:38;;;;;;;;;;;;;;;22.31;59.88;99117.28;2074256;28;19943;-52
2022/05/17 00:34:38;;;;;;;;;;;;;;;22.32;59.73;99118.13;2075449;28;19929;-47
2022/05/17 00:35:43;;;;;;;;;;;;;;;22.29;59.75;99122.91;2075900;28;19929;-52
2022/05/17 00:36:44;;;;;;;;;;;;;;;22.31;59.87;99119.97;2075539;28;19929;-53
2022/05/17 00:37:47;;;;;;;;;;;;;;;22.32;59.78;99123.53;2076761;28;20090;-48
2022/05/17 00:38:47;;;;;;;;;;;;;;;22.31;60.00;99117.28;2076254;28;19960;-54
2022/05/17 00:39:49;;;;;;;;;;;;;;;22.30;59.91;99121.84;2073235;28;20319;-50
2022/05/17 00:40:49;;;;;;;;;;;;;;;22.30;59.87;99115.63;2074659;28;19933;-53
2022/05/17 00:41:51;;;;;;;;;;;;;;;22.31;59.94;99114.56;2074868;28;20035;-50
2022/05/17 00:42:51;;;;;;;;;;;;;;;22.30;59.88;99110.22;2072139;28;20366;-50
2022/05/17 00:45:12;;;;;;;;;;;;;;;22.29;59.85;99116.69;2072663;28;19925;-49
2022/05/17 00:46:13;;;;;;;;;;;;;;;22.30;59.89;99121.03;2075234;28;19951;-52
2022/05/17 00:47:17;;;;;;;;;;;;;;;22.30;59.91;99118.31;2071584;28;19925;-53
2022/05/17 00:48:18;;;;;;;;;;;;;;;22.31;59.83;99119.97;2071116;28;19965;-50
2022/05/17 00:49:24;;;;;;;;;;;;;;;22.30;59.93;99121.03;2076800;28;19929;-53
2022/05/17 00:50:28;;;;;;;;;;;;;;;22.31;59.84;99119.97;2076009;28;19951;-53
2022/05/17 00:51:30;;;;;;;;;;;;;;;22.29;59.87;99117.50;2074619;28;19992;-53
2022/05/17 00:52:33;;;;;;;;;;;;;;;22.29;59.71;99113.97;2075744;28;19933;-50
2022/05/17 00:53:36;;;;;;;;;;;;;;;22.28;59.98;99118.53;2075849;28;20024;-51
2022/05/17 00:54:38;;;;;;;;;;;;;;;22.28;59.81;99112.31;2074147;28;20695;-50
2022/05/17 00:55:43;;;;;;;;;;;;;;;22.28;59.82;99107.72;2073518;28;19925;-50
2022/05/17 00:56:45;;;;;;;;;;;;;;;22.28;59.71;99107.72;2075269;28;20322;-54
2022/05/17 00:57:51;;;;;;;;;;;;;;;22.27;59.94;99111.47;2073332;28;20043;-50
2022/05/17 00:58:54;;;;;;;;;;;;;;;22.29;59.89;99111.28;2075357;28;19929;-50
2022/05/17 00:59:57;;;;;;;;;;;;;;;22.28;59.84;99115.00;2074523;28;20024;-51
2022/05/17 01:01:02;;;;;;;;;;;;;;;22.30;59.75;99112.91;2072383;28;19925;-49
2022/05/17 01:02:05;;;;;;;;;;;;;;;22.28;59.67;99115.81;2073195;28;19929;-50
2022/05/17 01:03:07;;;;;;;;;;;;;;;22.28;59.89;99112.31;2073224;28;19953;-53
2022/05/17 01:04:11;;;;;;;;;;;;;;;22.27;59.79;99102.53;2074208;28;20023;-53
2022/05/17 01:05:12;;;;;;;;;;;;;;;22.27;59.83;99100.66;2075711;28;23390;-49
2022/05/17 01:06:14;;;;;;;;;;;;;;;22.28;59.89;99105.00;2074327;28;19926;-50
2022/05/17 01:07:17;;;;;;;;;;;;;;;22.27;59.90;99108.78;2076090;28;19925;-53
2022/05/17 01:08:19;;;;;;;;;;;;;;;22.27;59.92;99100.66;2073866;28;19926;-53
2022/05/17 01:09:23;;;;;;;;;;;;;;;22.26;59.85;99099.03;2072791;28;20434;-48
2022/05/17 01:10:25;;;;;;;;;;;;;;;22.26;59.87;99104.44;2074990;28;20024;-49
2022/05/17 01:11:26;;;;;;;;;;;;;;;22.26;59.86;99101.72;2075510;28;19929;-54
2022/05/17 01:12:28;;;;;;;;;;;;;;;22.27;59.77;99097.97;2072963;28;20454;-52
2022/05/17 01:15:00;;;;;;;;;;;;;;;22.26;59.96;99092.78;2072340;28;19937;-47
2022/05/17 01:16:01;;;;;;;;;;;;;;;22.26;59.85;99090.91;2075239;28;19929;-53
2022/05/17 01:17:02;;;;;;;;;;;;;;;22.26;59.94;99092.78;2075084;28;19940;-51
2022/05/17 01:18:04;;;;;;;;;;;;;;;22.26;59.88;99095.50;2075031;28;19925;-52
2022/05/17 01:19:08;;;;;;;;;;;;;;;22.24;59.87;99090.28;2073797;28;19925;-47
2022/05/17 01:20:11;;;;;;;;;;;;;;;22.25;60.04;99097.34;2073974;28;20035;-47
2022/05/17 01:21:13;;;;;;;;;;;;;;;22.26;60.00;99095.50;2074968;28;19948;-52
2022/05/17 01:22:15;;;;;;;;;;;;;;;22.23;60.00;99087.78;2075135;28;19933;-52
2022/05/17 01:23:15;;;;;;;;;;;;;;;22.24;60.15;99090.28;2072133;28;19965;-51
2022/05/17 01:24:17;;;;;;;;;;;;;;;22.24;60.05;99092.19;2070508;28;19933;-53
2022/05/17 01:25:18;;;;;;;;;;;;;;;22.23;60.03;99085.94;2075613;28;19929;-47
2022/05/17 01:26:21;;;;;;;;;;;;;;;22.24;60.06;99090.28;2075135;28;20281;-52
2022/05/17 01:27:33;;;;;;;;;;;;;;;22.23;60.06;99087.78;2072529;28;20601;-54
2022/05/17 01:28:35;;;;;;;;;;;;;;;22.24;60.00;99089.47;2072495;28;19972;-50
2022/05/17 01:29:41;;;;;;;;;;;;;;;22.22;60.22;99091.56;2075982;28;19964;-53
2022/05/17 01:30:41;;;;;;;;;;;;;;;22.23;59.90;99094.06;2071213;28;19929;-48
2022/05/17 01:31:43;;;;;;;;;;;;;;;22.22;60.07;99086.97;2075073;28;20016;-47
2022/05/17 01:32:44;;;;;;;;;;;;;;;22.22;59.99;99088.84;2074994;28;19929;-50
2022/05/17 01:33:45;;;;;;;;;;;;;;;22.23;59.94;99093.19;2074692;28;19929;-47
2022/05/17 01:34:46;;;;;;;;;;;;;;;22.22;60.05;99089.69;2075920;28;19944;-52
2022/05/17 01:35:47;;;;;;;;;;;;;;;22.24;59.89;99094.88;2074453;28;20306;-50
2022/05/17 01:36:49;;;;;;;;;;;;;;;22.24;59.97;99086.78;2072444;28;19929;-51
2022/05/17 01:37:53;;;;;;;;;;;;;;;22.25;60.01;99085.72;2075086;28;19940;-47
2022/05/17 01:38:53;;;;;;;;;;;;;;;22.24;60.00;99084.06;2076036;28;20785;-46
2022/05/17 01:39:55;;;;;;;;;;;;;;;22.25;60.05;99088.41;2075761;28;19979;-51
2022/05/17 01:40:56;;;;;;;;;;;;;;;22.24;60.19;99086.78;2076577;28;19964;-52
2022/05/17 01:41:58;;;;;;;;;;;;;;;22.22;60.09;99083.44;2076513;28;20298;-51
2022/05/17 01:42:58;;;;;;;;;;;;;;;22.22;60.04;99080.75;2074030;28;19936;-52
2022/05/17 01:44:00;;;;;;;;;;;;;;;22.21;60.11;99076.41;2074080;28;20016;-53
2022/05/17 01:45:00;;;;;;;;;;;;;;;22.24;59.95;99078.66;2072766;28;19934;-47
2022/05/17 01:46:05;;;;;;;;;;;;;;;22.23;59.87;99083.25;2072790;28;20301;-54
2022/05/17 01:47:05;;;;;;;;;;;;;;;22.23;60.05;99079.69;2073418;28;20276;-52
2022/05/17 01:48:07;;;;;;;;;;;;;;;22.21;59.89;99079.09;2073866;28;19979;-49
2022/05/17 01:49:08;;;;;;;;;;;;;;;22.21;59.99;99085.31;2075223;28;19925;-50
2022/05/17 01:50:10;;;;;;;;;;;;;;;22.23;59.99;99083.25;2074716;28;20055;-49
2022/05/17 01:51:10;;;;;;;;;;;;;;;22.22;59.96;99086.16;2073209;28;19929;-49
2022/05/17 01:52:13;;;;;;;;;;;;;;;22.23;59.97;99082.41;2074797;28;19936;-54
2022/05/17 01:53:14;;;;;;;;;;;;;;;22.22;59.96;99078.03;2075588;28;21028;-48
2022/05/17 01:54:15;;;;;;;;;;;;;;;22.22;60.04;99078.03;2072721;28;19929;-48
2022/05/17 01:55:16;;;;;;;;;;;;;;;22.21;60.01;99079.91;2075787;28;20812;-48
2022/05/17 01:56:18;;;;;;;;;;;;;;;22.22;59.84;99078.03;2075180;28;20040;-52
2022/05/17 01:57:18;;;;;;;;;;;;;;;22.19;60.17;99082.00;2075464;28;19969;-51
2022/05/17 01:58:20;;;;;;;;;;;;;;;22.20;60.02;99078.25;2076305;28;19933;-51
2022/05/17 01:59:20;;;;;;;;;;;;;;;22.20;60.18;99085.53;2076684;28;20383;-49
2022/05/17 02:00:23;;;;;;;;;;;;;;;22.22;59.90;99083.44;2075153;28;19929;-53
2022/05/17 02:01:24;;;;;;;;;;;;;;;22.20;60.13;99072.03;2076816;28;19925;-52
2022/05/17 02:02:25;;;;;;;;;;;;;;;22.20;60.10;99077.41;2076354;28;19925;-51
2022/05/17 02:03:26;;;;;;;;;;;;;;;22.19;60.01;99070.38;2071844;28;19933;-50
2022/05/17 02:04:27;;;;;;;;;;;;;;;22.19;60.14;99075.78;2072888;28;20260;-53
2022/05/17 02:05:28;;;;;;;;;;;;;;;22.20;60.05;99075.53;2076528;28;19968;-50
2022/05/17 02:06:30;;;;;;;;;;;;;;;22.21;59.91;99071.81;2072041;28;19936;-52
2022/05/17 02:07:32;;;;;;;;;;;;;;;22.20;60.13;99072.03;2074355;28;19932;-52
2022/05/17 02:08:33;;;;;;;;;;;;;;;22.20;59.99;99072.03;2076196;28;19937;-46
2022/05/17 02:09:34;;;;;;;;;;;;;;;22.20;60.21;99069.31;2077020;28;20390;-49
2022/05/17 02:10:35;;;;;;;;;;;;;;;22.18;60.12;99072.25;2075535;28;19929;-46
2022/05/17 02:11:36;;;;;;;;;;;;;;;22.18;60.10;99074.13;2076447;28;20273;-51
2022/05/17 02:12:37;;;;;;;;;;;;;;;22.20;60.13;99066.63;2074253;28;19931;-52
2022/05/17 02:13:38;;;;;;;;;;;;;;;22.20;60.21;99082.81;2076623;28;20413;-48
2022/05/17 02:14:39;;;;;;;;;;;;;;;22.20;60.01;99075.53;2076924;28;19936;-53
2022/05/17 02:15:40;;;;;;;;;;;;;;;22.20;60.01;99077.41;2073485;28;20398;-49
2022/05/17 02:16:42;;;;;;;;;;;;;;;22.17;60.22;99077.81;2073429;28;19936;-54
2022/05/17 02:17:43;;;;;;;;;;;;;;;22.19;60.11;99076.59;2073083;28;19932;-54
2022/05/17 02:18:44;;;;;;;;;;;;;;;22.20;60.02;99082.81;2073094;28;19931;-50
2022/05/17 02:19:45;;;;;;;;;;;;;;;22.20;60.05;99074.72;2074719;28;19964;-51
2022/05/17 02:20:46;;;;;;;;;;;;;;;22.18;60.12;99076.84;2071841;28;20402;-49
2022/05/17 02:21:48;;;;;;;;;;;;;;;22.18;60.10;99074.13;2072705;28;20032;-49
2022/05/17 02:22:50;;;;;;;;;;;;;;;22.16;60.29;99068.06;2075516;28;20299;-51
2022/05/17 02:23:52;;;;;;;;;;;;;;;22.19;59.92;99078.47;2075337;28;20391;-53
2022/05/17 02:24:52;;;;;;;;;;;;;;;22.16;60.22;99066.19;2072051;28;20003;-49
2022/05/17 02:25:54;;;;;;;;;;;;;;;22.17;60.11;99067.84;2071690;28;19932;-53
2022/05/17 02:26:54;;;;;;;;;;;;;;;22.16;60.26;99070.78;2074035;28;19929;-49
2022/05/17 02:27:56;;;;;;;;;;;;;;;22.16;60.01;99068.91;2073203;28;19933;-50
2022/05/17 02:28:57;;;;;;;;;;;;;;;22.16;60.21;99066.19;2073496;28;19964;-51
2022/05/17 02:29:58;;;;;;;;;;;;;;;22.16;60.14;99068.06;2074381;28;20400;-47
2022/05/17 02:30:59;;;;;;;;;;;;;;;22.17;60.33;99067.03;2074090;28;19925;-54
2022/05/17 02:32:01;;;;;;;;;;;;;;;22.17;60.17;99072.44;2076292;28;19925;-48
2022/05/17 02:33:03;;;;;;;;;;;;;;;22.16;60.18;99070.78;2077112;28;19925;-52
2022/05/17 02:34:04;;;;;;;;;;;;;;;22.16;60.11;99065.38;2073007;28;20291;-48
2022/05/17 02:35:06;;;;;;;;;;;;;;;22.16;60.23;99070.78;2075158;28;19956;-50
2022/05/17 02:36:07;;;;;;;;;;;;;;;22.17;60.03;99067.03;2073975;28;19933;-51
2022/05/17 02:37:08;;;;;;;;;;;;;;;22.17;60.14;99072.44;2072262;28;19963;-49
2022/05/17 02:38:11;;;;;;;;;;;;;;;22.15;60.20;99072.66;2070821;28;20386;-49
2022/05/17 02:39:12;;;;;;;;;;;;;;;22.15;60.02;99069.09;2073952;28;20060;-52
2022/05/17 02:40:13;;;;;;;;;;;;;;;22.16;60.08;99066.19;2075626;28;20545;-47
2022/05/17 02:41:17;;;;;;;;;;;;;;;22.15;60.20;99075.34;2074484;28;19925;-51
2022/05/17 02:42:19;;;;;;;;;;;;;;;22.16;60.28;99070.78;2074852;28;19925;-50
2022/05/17 02:43:20;;;;;;;;;;;;;;;22.15;60.15;99069.97;2075187;28;20804;-51
2022/05/17 02:44:21;;;;;;;;;;;;;;;22.15;60.05;99075.34;2075147;28;19935;-51
2022/05/17 02:45:22;;;;;;;;;;;;;;;22.16;60.30;99079.72;2075786;28;19929;-50
2022/05/17 02:46:23;;;;;;;;;;;;;;;22.15;60.20;99079.91;2077383;28;19929;-48
2022/05/17 02:47:24;;;;;;;;;;;;;;;22.16;60.16;99070.78;2078430;28;19925;-52
2022/05/17 02:48:25;;;;;;;;;;;;;;;22.14;60.33;99070.97;2074203;28;19929;-47
2022/05/17 02:49:26;;;;;;;;;;;;;;;22.15;60.08;99069.09;2076111;28;20292;-49
2022/05/17 02:50:27;;;;;;;;;;;;;;;22.14;60.20;99070.16;2077585;28;20016;-47
2022/05/17 02:51:28;;;;;;;;;;;;;;;22.13;60.07;99072.03;2071305;28;19933;-49
2022/05/17 02:52:30;;;;;;;;;;;;;;;22.13;60.38;99076.63;2074869;28;20060;-47
2022/05/17 02:53:31;;;;;;;;;;;;;;;22.13;60.24;99076.63;2075659;28;19948;-51
2022/05/17 02:54:33;;;;;;;;;;;;;;;22.13;60.20;99073.91;2074784;28;19936;-50
2022/05/17 02:55:34;;;;;;;;;;;;;;;22.12;60.29;99072.25;2075640;28;19941;-48
2022/05/17 02:56:35;;;;;;;;;;;;;;;22.13;60.29;99076.63;2074349;28;19960;-50
2022/05/17 02:57:36;;;;;;;;;;;;;;;22.15;60.11;99075.34;2075938;28;19936;-51
2022/05/17 02:58:38;;;;;;;;;;;;;;;22.13;60.28;99079.31;2076236;28;20386;-52
2022/05/17 02:59:38;;;;;;;;;;;;;;;22.12;60.34;99074.94;2075501;28;19929;-52
2022/05/17 03:00:40;;;;;;;;;;;;;;;22.15;60.12;99077.22;2075756;28;19925;-51
2022/05/17 03:01:41;;;;;;;;;;;;;;;22.14;60.36;99075.56;2075989;28;20008;-51
2022/05/17 03:02:42;;;;;;;;;;;;;;;22.15;60.22;99069.09;2075889;28;19929;-52
2022/05/17 03:03:43;;;;;;;;;;;;;;;22.12;60.21;99075.78;2076172;28;19929;-51
2022/05/17 03:04:45;;;;;;;;;;;;;;;22.11;60.28;99070.59;2076235;28;19925;-52
2022/05/17 03:05:46;;;;;;;;;;;;;;;22.11;60.26;99079.53;2073147;28;19929;-53
2022/05/17 03:06:47;;;;;;;;;;;;;;;22.11;60.26;99065.19;2073633;28;20020;-51
2022/05/17 03:07:48;;;;;;;;;;;;;;;22.09;60.40;99071.66;2076750;28;19965;-54
2022/05/17 03:08:51;;;;;;;;;;;;;;;22.09;60.32;99066.25;2073773;28;20567;-50
2022/05/17 03:09:51;;;;;;;;;;;;;;;22.13;60.16;99073.91;2076457;28;19929;-49
2022/05/17 03:10:53;;;;;;;;;;;;;;;22.11;60.22;99070.59;2076436;28;19925;-52
2022/05/17 03:11:54;;;;;;;;;;;;;;;22.10;60.25;99072.47;2074548;28;19925;-48
2022/05/17 03:12:55;;;;;;;;;;;;;;;22.12;60.14;99069.53;2076666;28;19929;-50
2022/05/17 03:13:56;;;;;;;;;;;;;;;22.11;60.22;99067.91;2075441;28;19932;-52
2022/05/17 03:14:59;;;;;;;;;;;;;;;22.10;60.22;99067.06;2075367;28;19936;-47
2022/05/17 03:16:00;;;;;;;;;;;;;;;22.11;60.27;99070.59;2074589;28;20379;-51
2022/05/17 03:17:02;;;;;;;;;;;;;;;22.09;60.43;99068.09;2075102;28;19929;-48
2022/05/17 03:18:02;;;;;;;;;;;;;;;22.11;60.25;99067.91;2074020;28;19925;-49
2022/05/17 03:19:04;;;;;;;;;;;;;;;22.09;60.24;99063.53;2074073;28;20040;-53
2022/05/17 03:20:05;;;;;;;;;;;;;;;22.11;60.18;99070.59;2073684;28;19968;-52
2022/05/17 03:21:07;;;;;;;;;;;;;;;22.12;60.16;99069.53;2074778;28;19967;-52
2022/05/17 03:22:08;;;;;;;;;;;;;;;22.11;60.14;99074.13;2074873;28;19926;-53
2022/05/17 03:23:10;;;;;;;;;;;;;;;22.11;60.18;99065.19;2077326;28;19925;-48
2022/05/17 03:24:12;;;;;;;;;;;;;;;22.10;60.16;99072.47;2074845;28;19929;-48
2022/05/17 03:25:13;;;;;;;;;;;;;;;22.08;60.13;99075.38;2076963;28;19948;-51
2022/05/17 03:26:14;;;;;;;;;;;;;;;22.09;60.19;99070.78;2069785;28;19940;-53
2022/05/17 03:27:17;;;;;;;;;;;;;;;22.07;60.27;99068.31;2071938;28;19947;-52
2022/05/17 03:28:18;;;;;;;;;;;;;;;22.08;60.28;99072.69;2074925;28;20357;-50
2022/05/17 03:29:19;;;;;;;;;;;;;;;22.08;60.13;99072.69;2075477;28;19929;-53
2022/05/17 03:30:20;;;;;;;;;;;;;;;22.08;60.25;99075.38;2075154;28;19936;-50
2022/05/17 03:31:22;;;;;;;;;;;;;;;22.09;60.11;99077.06;2076612;28;19935;-48
2022/05/17 03:32:22;;;;;;;;;;;;;;;22.08;60.24;99069.97;2075089;28;19929;-46
2022/05/17 03:33:24;;;;;;;;;;;;;;;22.08;60.31;99074.56;2075552;28;20591;-48
2022/05/17 03:34:25;;;;;;;;;;;;;;;22.07;60.46;99075.59;2077027;28;19957;-48
2022/05/17 03:35:27;;;;;;;;;;;;;;;22.07;60.26;99071.03;2073758;28;19936;-48
2022/05/17 03:36:28;;;;;;;;;;;;;;;22.07;60.12;99068.31;2073006;28;19981;-47
2022/05/17 03:37:29;;;;;;;;;;;;;;;22.07;60.16;99079.13;2077338;28;20426;-50
2022/05/17 03:38:30;;;;;;;;;;;;;;;22.08;60.17;99075.38;2075037;28;19925;-48
2022/05/17 03:39:32;;;;;;;;;;;;;;;22.07;60.26;99073.72;2076271;28;20680;-47
2022/05/17 03:40:34;;;;;;;;;;;;;;;22.05;60.43;99075.81;2074788;28;19986;-50
2022/05/17 03:41:34;;;;;;;;;;;;;;;22.06;60.22;99074.78;2075234;28;19979;-47
2022/05/17 03:42:36;;;;;;;;;;;;;;;22.08;60.12;99072.69;2075643;28;19929;-47
2022/05/17 03:43:38;;;;;;;;;;;;;;;22.08;60.19;99077.25;2076447;28;19973;-47
2022/05/17 03:44:38;;;;;;;;;;;;;;;22.07;60.12;99072.91;2072701;28;20387;-47
2022/05/17 03:45:40;;;;;;;;;;;;;;;22.05;60.20;99075.81;2075537;28;19925;-47
2022/05/17 03:46:41;;;;;;;;;;;;;;;22.06;60.46;99082.88;2076141;28;19972;-48
2022/05/17 03:47:42;;;;;;;;;;;;;;;22.05;60.23;99077.69;2075348;28;19935;-48
2022/05/17 03:48:43;;;;;;;;;;;;;;;22.04;60.16;99076.88;2074596;28;19933;-50
2022/05/17 03:49:44;;;;;;;;;;;;;;;22.07;60.27;99079.13;2072457;28;19993;-47
2022/05/17 03:50:45;;;;;;;;;;;;;;;22.03;60.39;99083.28;2073017;28;19952;-46
2022/05/17 03:51:47;;;;;;;;;;;;;;;22.04;60.38;99079.56;2072106;28;19924;-47
2022/05/17 03:52:47;;;;;;;;;;;;;;;22.06;60.42;99074.78;2073404;28;20010;-48
2022/05/17 03:53:50;;;;;;;;;;;;;;;22.05;60.16;99077.69;2075466;28;19925;-46
2022/05/17 03:54:55;;;;;;;;;;;;;;;22.03;60.21;99072.50;2074666;28;19951;-49
2022/05/17 03:55:56;;;;;;;;;;;;;;;22.04;60.37;99076.03;2074651;28;20537;-48
2022/05/17 03:56:57;;;;;;;;;;;;;;;22.04;60.48;99074.16;2074523;28;24337;-47
2022/05/17 03:57:58;;;;;;;;;;;;;;;22.04;60.25;99076.03;2074846;28;19965;-49
2022/05/17 03:58:59;;;;;;;;;;;;;;;22.04;60.23;99074.16;2073864;28;19972;-54
2022/05/17 04:00:01;;;;;;;;;;;;;;;22.04;60.31;99078.75;2076636;28;19929;-49
2022/05/17 04:01:01;;;;;;;;;;;;;;;22.01;60.27;99077.28;2074113;28;19929;-47
2022/05/17 04:02:03;;;;;;;;;;;;;;;22.03;60.30;99077.88;2074474;28;19972;-47
2022/05/17 04:03:04;;;;;;;;;;;;;;;22.03;60.44;99080.59;2075862;28;19929;-48
2022/05/17 04:04:05;;;;;;;;;;;;;;;22.06;60.25;99077.50;2075182;28;20682;-51
2022/05/17 04:05:06;;;;;;;;;;;;;;;22.04;60.23;99071.47;2077014;28;20261;-48
2022/05/17 04:06:08;;;;;;;;;;;;;;;22.04;60.14;99076.88;2075170;28;19974;-48
2022/05/17 04:07:08;;;;;;;;;;;;;;;22.04;60.22;99066.06;2076950;28;20044;-47
2022/05/17 04:08:10;;;;;;;;;;;;;;;22.04;60.17;99068.75;2074208;28;20511;-47
2022/05/17 04:09:10;;;;;;;;;;;;;;;22.05;60.11;99072.28;2075392;28;20323;-50
2022/05/17 04:10:15;;;;;;;;;;;;;;;22.05;60.20;99070.41;2075799;28;19925;-46
2022/05/17 04:11:15;;;;;;;;;;;;;;;22.05;60.22;99075.00;2071765;28;20913;-50
2022/05/17 04:12:18;;;;;;;;;;;;;;;22.05;60.28;99075.00;2074019;28;19929;-49
2022/05/17 04:13:18;;;;;;;;;;;;;;;22.02;60.23;99075.41;2076526;28;20379;-47
2022/05/17 04:14:20;;;;;;;;;;;;;;;22.02;60.21;99078.94;2073800;28;19960;-48
2022/05/17 04:15:22;;;;;;;;;;;;;;;22.04;60.30;99071.47;2076709;28;20498;-47
2022/05/17 04:16:23;;;;;;;;;;;;;;;22.04;60.34;99076.03;2074472;28;19940;-50
2022/05/17 04:17:24;;;;;;;;;;;;;;;22.02;60.34;99073.53;2074105;28;19952;-48
2022/05/17 04:18:25;;;;;;;;;;;;;;;22.02;60.27;99075.41;2069741;28;19933;-49
2022/05/17 04:19:27;;;;;;;;;;;;;;;22.02;60.39;99086.22;2075396;28;19951;-48
2022/05/17 04:20:28;;;;;;;;;;;;;;;21.99;60.44;99082.06;2073408;28;19983;-49
2022/05/17 04:21:30;;;;;;;;;;;;;;;22.01;60.33;99077.28;2074089;28;19933;-47
2022/05/17 04:22:31;;;;;;;;;;;;;;;22.01;60.24;99077.28;2072183;28;20355;-48
2022/05/17 04:23:32;;;;;;;;;;;;;;;22.02;60.40;99087.03;2075500;28;19929;-48
2022/05/17 04:24:34;;;;;;;;;;;;;;;22.01;60.42;99076.47;2074946;28;19960;-48
2022/05/17 04:25:37;;;;;;;;;;;;;;;22.01;60.21;99077.28;2074581;28;19951;-47
2022/05/17 04:26:37;;;;;;;;;;;;;;;22.03;60.32;99085.16;2072257;28;19932;-50
2022/05/17 04:27:39;;;;;;;;;;;;;;;22.01;60.27;99073.78;2075616;28;20004;-47
2022/05/17 04:28:39;;;;;;;;;;;;;;;21.98;60.33;99085.84;2073336;28;19925;-50
2022/05/17 04:29:41;;;;;;;;;;;;;;;22.01;60.40;99074.59;2075532;28;20192;-47
2022/05/17 04:30:41;;;;;;;;;;;;;;;22.01;60.19;99077.28;2074548;28;19932;-47
2022/05/17 04:31:43;;;;;;;;;;;;;;;22.00;60.26;99072.09;2071109;28;19939;-48
2022/05/17 04:32:44;;;;;;;;;;;;;;;22.02;60.36;99084.34;2075789;28;20379;-47
2022/05/17 04:33:46;;;;;;;;;;;;;;;22.03;60.23;99077.06;2074082;28;19998;-46
2022/05/17 04:34:46;;;;;;;;;;;;;;;22.02;60.41;99081.66;2076077;28;20568;-47
2022/05/17 04:35:48;;;;;;;;;;;;;;;22.01;60.19;99081.88;2077398;28;19933;-48
2022/05/17 04:36:49;;;;;;;;;;;;;;;22.03;60.07;99091.41;2076989;28;19925;-48
2022/05/17 04:37:51;;;;;;;;;;;;;;;22.01;60.17;99085.41;2076278;28;19929;-46
2022/05/17 04:38:52;;;;;;;;;;;;;;;22.01;60.36;99085.41;2074335;28;19929;-48
2022/05/17 04:39:53;;;;;;;;;;;;;;;22.01;60.15;99084.56;2075557;28;19929;-46
2022/05/17 04:40:56;;;;;;;;;;;;;;;22.00;60.36;99088.31;2076152;28;20194;-48
2022/05/17 04:41:57;;;;;;;;;;;;;;;22.00;60.26;99082.91;2074838;28;19961;-48
2022/05/17 04:42:58;;;;;;;;;;;;;;;22.00;60.25;99082.91;2074037;28;19940;-49
2022/05/17 04:43:59;;;;;;;;;;;;;;;22.00;60.13;99083.72;2075497;28;19925;-49
2022/05/17 04:45:00;;;;;;;;;;;;;;;22.03;60.01;99086.00;2076903;28;19971;-49
2022/05/17 04:46:01;;;;;;;;;;;;;;;22.02;59.95;99087.03;2077450;28;19925;-46
2022/05/17 04:47:03;;;;;;;;;;;;;;;22.00;60.27;99086.44;2075027;28;19952;-48
2022/05/17 04:48:05;;;;;;;;;;;;;;;22.00;60.24;99089.13;2076394;28;19929;-50
2022/05/17 04:49:07;;;;;;;;;;;;;;;22.00;60.24;99088.31;2071502;28;20505;-50
2022/05/17 04:50:10;;;;;;;;;;;;;;;21.97;60.33;99086.84;2068007;28;19936;-48
2022/05/17 04:51:12;;;;;;;;;;;;;;;21.97;60.29;99083.34;2068665;28;19932;-48
2022/05/17 04:52:13;;;;;;;;;;;;;;;21.96;60.36;99087.09;2073276;28;19979;-49
2022/05/17 04:53:15;;;;;;;;;;;;;;;21.97;60.37;99084.16;2075703;28;20426;-47
2022/05/17 04:54:15;;;;;;;;;;;;;;;21.97;60.35;99083.34;2074643;28;19936;-46
2022/05/17 04:55:18;;;;;;;;;;;;;;;21.96;60.44;99087.91;2075026;28;19929;-48
2022/05/17 04:56:20;;;;;;;;;;;;;;;21.96;60.31;99085.22;2072692;28;19936;-48
2022/05/17 04:57:22;;;;;;;;;;;;;;;21.97;60.07;99083.34;2076668;28;19944;-47
2022/05/17 04:58:23;;;;;;;;;;;;;;;21.97;60.22;99081.47;2076379;28;19968;-46
2022/05/17 04:59:25;;;;;;;;;;;;;;;21.97;60.06;99084.16;2075212;28;20442;-46
2022/05/17 05:00:26;;;;;;;;;;;;;;;21.97;60.22;99077.94;2076609;28;19932;-50
2022/05/17 05:01:28;;;;;;;;;;;;;;;21.97;60.27;99080.63;2072803;28;20544;-46
2022/05/17 05:02:28;;;;;;;;;;;;;;;21.97;60.20;99084.16;2073403;28;20655;-47
2022/05/17 05:03:30;;;;;;;;;;;;;;;21.98;60.12;99083.13;2066422;28;20057;-48
2022/05/17 05:04:30;;;;;;;;;;;;;;;22.00;60.01;99082.91;2069208;28;20055;-48
2022/05/17 05:05:32;;;;;;;;;;;;;;;21.96;60.16;99087.91;2071282;28;20454;-46
2022/05/17 05:06:33;;;;;;;;;;;;;;;21.97;60.13;99089.56;2076757;28;19967;-46
2022/05/17 05:07:34;;;;;;;;;;;;;;;21.97;60.12;99088.72;2076112;28;19929;-47
2022/05/17 05:08:36;;;;;;;;;;;;;;;21.96;60.14;99089.78;2074673;28;20596;-50
2022/05/17 05:09:38;;;;;;;;;;;;;;;21.99;60.33;99086.66;2077633;28;19956;-47
2022/05/17 05:10:42;;;;;;;;;;;;;;;21.96;60.49;99092.50;2076773;28;19971;-51
2022/05/17 05:11:44;;;;;;;;;;;;;;;21.98;60.53;99087.69;2076671;28;19925;-48
2022/05/17 05:12:45;;;;;;;;;;;;;;;21.97;60.72;99094.97;2075925;28;19925;-47
2022/05/17 05:13:46;;;;;;;;;;;;;;;21.95;60.63;99088.94;2077218;28;19968;-48
2022/05/17 05:14:47;;;;;;;;;;;;;;;21.95;60.79;99097.03;2073279;28;19929;-49
2022/05/17 05:15:48;;;;;;;;;;;;;;;21.97;61.01;99096.84;2072800;28;19950;-48
2022/05/17 05:16:50;;;;;;;;;;;;;;;21.97;60.82;99103.06;2075970;28;19947;-51
2022/05/17 05:17:51;;;;;;;;;;;;;;;21.97;61.12;99104.94;2075307;28;20295;-53
2022/05/17 05:18:53;;;;;;;;;;;;;;;21.97;61.19;99105.75;2076629;28;19929;-53
2022/05/17 05:19:54;;;;;;;;;;;;;;;21.99;61.21;99100.16;2078031;28;19924;-52
2022/05/17 05:21:09;;;;;;;;;;;;;;;22.00;60.86;99107.22;2077032;28;19925;-49
2022/05/17 05:22:10;;;;;;;;;;;;;;;22.00;60.94;99102.63;2076674;28;19969;-49
2022/05/17 05:23:12;;;;;;;;;;;;;;;22.00;60.94;99105.34;2078031;28;20346;-50
2022/05/17 05:24:12;;;;;;;;;;;;;;;21.99;61.43;99108.25;2074275;28;19935;-48